createdAt,value
2019-05-18T00:00:17.482Z,43.10
2019-05-18T00:00:50.125Z,43.60
2019-05-18T00:01:22.771Z,58.20
2019-05-18T00:01:55.396Z,43.78
2019-05-18T00:02:28.030Z,50.73
2019-05-18T00:03:00.669Z,48.75
2019-05-18T00:03:33.777Z,51.08
2019-05-18T00:04:06.433Z,43.17
2019-05-18T00:04:39.398Z,48.38
2019-05-18T00:05:12.391Z,45.52
2019-05-18T00:05:45.018Z,46.28
2019-05-18T00:06:17.813Z,48.55
2019-05-18T00:06:50.451Z,45.58
2019-05-18T00:07:23.100Z,41.70
2019-05-18T00:07:55.844Z,46.63
2019-05-18T00:08:29.258Z,44.10
2019-05-18T00:09:02.260Z,47.40
2019-05-18T00:09:35.643Z,47.48
2019-05-18T00:10:09.471Z,41.58
2019-05-18T00:10:42.240Z,43.90
2019-05-18T00:11:14.875Z,53.58
2019-05-18T00:11:47.498Z,45.67
2019-05-18T00:12:20.529Z,45.35
2019-05-18T00:12:53.180Z,46.90
2019-05-18T00:13:26.347Z,48.45
2019-05-18T00:13:59.033Z,47.73
2019-05-18T00:14:31.687Z,41.80
2019-05-18T00:15:04.695Z,43.17
2019-05-18T00:15:37.671Z,43.45
2019-05-18T00:16:10.810Z,47.75
2019-05-18T00:16:43.779Z,45.83
2019-05-18T00:17:25.077Z,48.02
2019-05-18T00:17:50.846Z,47.00
2019-05-18T00:18:23.487Z,44.33
2019-05-18T00:18:56.131Z,45.45
2019-05-18T00:19:28.749Z,51.15
2019-05-18T00:20:01.398Z,42.43
2019-05-18T00:20:35.115Z,42.73
2019-05-18T00:21:07.731Z,42.90
2019-05-18T00:21:40.733Z,42.15
2019-05-18T00:22:13.857Z,44.98
2019-05-18T00:22:46.892Z,45.67
2019-05-18T00:23:19.974Z,45.43
2019-05-18T00:23:52.603Z,46.13
2019-05-18T00:24:25.252Z,49.95
2019-05-18T00:24:58.687Z,48.15
2019-05-18T00:25:31.610Z,46.42
2019-05-18T00:26:04.259Z,41.70
2019-05-18T00:26:36.882Z,46.20
2019-05-18T00:27:09.556Z,47.43
2019-05-18T00:27:42.211Z,45.65
2019-05-18T00:28:14.857Z,45.85
2019-05-18T00:28:47.861Z,45.35
2019-05-18T00:29:20.855Z,41.28
2019-05-18T00:29:53.486Z,45.10
2019-05-18T00:30:26.253Z,44.67
2019-05-18T00:30:58.879Z,42.58
2019-05-18T00:31:31.526Z,45.85
2019-05-18T00:32:04.395Z,45.12
2019-05-18T00:32:37.132Z,45.10
2019-05-18T00:33:10.212Z,43.78
2019-05-18T00:33:42.839Z,40.65
2019-05-18T00:34:15.474Z,48.00
2019-05-18T00:34:48.511Z,47.15
2019-05-18T00:35:21.165Z,46.18
2019-05-18T00:35:53.806Z,45.10
2019-05-18T00:36:26.507Z,47.45
2019-05-18T00:36:59.122Z,45.83
2019-05-18T00:37:32.090Z,42.67
2019-05-18T00:38:04.796Z,46.65
2019-05-18T00:38:38.723Z,41.95
2019-05-18T00:39:11.330Z,47.98
2019-05-18T00:39:44.352Z,44.18
2019-05-18T00:40:17.399Z,48.92
2019-05-18T00:40:50.522Z,46.55
2019-05-18T00:41:23.169Z,50.43
2019-05-18T00:41:56.178Z,46.33
2019-05-18T00:42:28.842Z,44.27
2019-05-18T00:43:01.459Z,46.70
2019-05-18T00:43:34.130Z,45.48
2019-05-18T00:44:06.767Z,47.25
2019-05-18T00:44:39.390Z,44.90
2019-05-18T00:45:12.495Z,49.58
2019-05-18T00:45:45.194Z,43.87
2019-05-18T00:46:17.782Z,43.95
2019-05-18T00:46:50.420Z,44.33
2019-05-18T00:47:23.816Z,38.38
2019-05-18T00:47:56.468Z,45.10
2019-05-18T00:48:29.489Z,40.80
2019-05-18T00:49:02.230Z,45.00
2019-05-18T00:49:34.862Z,44.03
2019-05-18T00:50:08.096Z,41.68
2019-05-18T00:50:40.731Z,42.80
2019-05-18T00:51:13.376Z,47.93
2019-05-18T00:51:46.334Z,44.33
2019-05-18T00:52:18.964Z,41.28
2019-05-18T00:52:51.599Z,46.75
2019-05-18T00:53:24.576Z,46.63
2019-05-18T00:53:57.890Z,48.00
2019-05-18T00:54:30.566Z,43.40
2019-05-18T00:55:03.698Z,45.85
2019-05-18T00:55:36.670Z,43.90
2019-05-18T00:56:09.299Z,46.05
2019-05-18T00:56:41.950Z,47.35
2019-05-18T00:57:14.624Z,46.73
2019-05-18T00:57:47.263Z,46.98
2019-05-18T00:58:19.890Z,45.10
2019-05-18T00:58:52.681Z,44.18
2019-05-18T00:59:25.489Z,41.88
2019-05-18T00:59:58.506Z,40.98
2019-05-18T01:00:31.478Z,43.50
2019-05-18T01:01:04.304Z,47.65
2019-05-18T01:01:36.928Z,46.45
2019-05-18T01:02:09.884Z,48.78
2019-05-18T01:02:42.863Z,47.45
2019-05-18T01:03:15.862Z,49.45
2019-05-18T01:03:48.503Z,50.95
2019-05-18T01:04:21.155Z,57.85
2019-05-18T01:04:53.798Z,49.08
2019-05-18T01:05:26.859Z,54.98
2019-05-18T01:05:59.839Z,49.90
2019-05-18T01:06:32.492Z,54.45
2019-05-18T01:07:05.108Z,41.92
2019-05-18T01:07:37.777Z,40.30
2019-05-18T01:08:10.751Z,39.75
2019-05-18T01:08:44.280Z,38.50
2019-05-18T01:09:17.216Z,45.75
2019-05-18T01:09:50.083Z,49.13
2019-05-18T01:10:23.450Z,42.10
2019-05-18T01:10:56.371Z,45.25
2019-05-18T01:11:29.265Z,42.95
2019-05-18T01:12:02.171Z,41.77
2019-05-18T01:12:35.052Z,42.98
2019-05-18T01:13:07.963Z,44.08
2019-05-18T01:13:40.869Z,45.67
2019-05-18T01:14:13.783Z,46.00
2019-05-18T01:14:47.252Z,44.45
2019-05-18T01:15:21.294Z,34.00
2019-05-18T01:15:54.884Z,36.38
2019-05-18T01:16:29.490Z,41.18
2019-05-18T01:17:02.779Z,37.55
2019-05-18T01:17:35.666Z,40.48
2019-05-18T01:18:08.746Z,42.13
2019-05-18T01:18:41.671Z,39.08
2019-05-18T01:19:14.568Z,40.33
2019-05-18T01:19:47.813Z,37.25
2019-05-18T01:20:21.330Z,37.95
2019-05-18T01:20:54.572Z,41.50
2019-05-18T01:21:27.447Z,36.45
2019-05-18T01:22:00.388Z,36.10
2019-05-18T01:22:33.375Z,35.17
2019-05-18T01:23:06.272Z,42.60
2019-05-18T01:23:39.182Z,33.10
2019-05-18T01:24:12.052Z,35.23
2019-05-18T01:24:45.382Z,34.33
2019-05-18T01:25:18.501Z,39.15
2019-05-18T01:25:51.369Z,46.33
2019-05-18T01:26:24.240Z,37.08
2019-05-18T01:26:57.144Z,38.88
2019-05-18T01:27:30.385Z,42.53
2019-05-18T01:28:04.044Z,44.40
2019-05-18T01:28:37.013Z,38.75
2019-05-18T01:29:09.994Z,45.85
2019-05-18T01:29:42.859Z,43.45
2019-05-18T01:30:16.194Z,41.45
2019-05-18T01:30:49.184Z,39.80
2019-05-18T01:31:22.089Z,41.92
2019-05-18T01:31:55.014Z,38.48
2019-05-18T01:32:28.065Z,39.67
2019-05-18T01:33:01.483Z,40.90
2019-05-18T01:33:34.364Z,40.28
2019-05-18T01:34:07.594Z,39.73
2019-05-18T01:34:40.510Z,45.75
2019-05-18T01:35:13.496Z,41.92
2019-05-18T01:35:47.129Z,42.83
2019-05-18T01:36:20.534Z,46.98
2019-05-18T01:36:53.545Z,46.92
2019-05-18T01:37:26.968Z,49.65
2019-05-18T01:37:59.877Z,48.63
2019-05-18T01:38:32.803Z,47.62
2019-05-18T01:39:06.688Z,54.08
2019-05-18T01:39:40.130Z,48.02
2019-05-18T01:40:14.143Z,46.18
2019-05-18T01:40:47.358Z,49.53
2019-05-18T01:41:20.270Z,48.50
2019-05-18T01:41:53.153Z,56.30
2019-05-18T01:42:26.040Z,50.52
2019-05-18T01:42:58.921Z,49.65
2019-05-18T01:43:31.767Z,44.67
2019-05-18T01:44:05.003Z,49.60
2019-05-18T01:44:38.218Z,41.92
2019-05-18T01:45:16.896Z,48.68
2019-05-18T01:45:46.715Z,46.00
2019-05-18T01:46:19.604Z,46.58
2019-05-18T01:46:52.816Z,42.70
2019-05-18T01:47:25.675Z,44.05
2019-05-18T01:48:12.658Z,45.28
2019-05-18T01:48:33.238Z,46.45
2019-05-18T01:49:06.101Z,42.20
2019-05-18T01:49:39.664Z,38.15
2019-05-18T01:50:13.186Z,41.75
2019-05-18T01:50:46.086Z,40.80
2019-05-18T01:51:18.943Z,37.38
2019-05-18T01:51:52.032Z,37.67
2019-05-18T01:52:25.284Z,34.10
2019-05-18T01:52:58.516Z,35.28
2019-05-18T01:53:31.396Z,36.65
2019-05-18T01:54:04.360Z,37.15
2019-05-18T01:54:37.237Z,37.93
2019-05-18T01:55:10.458Z,43.10
2019-05-18T01:55:43.359Z,41.28
2019-05-18T01:56:16.966Z,42.80
2019-05-18T01:56:49.835Z,44.13
2019-05-18T01:57:23.045Z,40.67
2019-05-18T01:57:56.268Z,43.87
2019-05-18T01:58:29.144Z,40.35
2019-05-18T01:59:01.983Z,41.77
2019-05-18T01:59:34.860Z,44.58
2019-05-18T02:00:08.874Z,43.08
2019-05-18T02:00:41.749Z,46.92
2019-05-18T02:01:14.585Z,44.88
2019-05-18T02:01:47.439Z,47.40
2019-05-18T02:02:20.753Z,45.58
2019-05-18T02:02:53.679Z,49.15
2019-05-18T02:03:26.343Z,45.28
2019-05-18T02:03:59.248Z,49.35
2019-05-18T02:04:31.899Z,42.88
2019-05-18T02:05:05.051Z,43.70
2019-05-18T02:05:38.021Z,43.92
2019-05-18T02:06:11.145Z,47.65
2019-05-18T02:06:44.113Z,41.75
2019-05-18T02:07:16.897Z,50.98
2019-05-18T02:07:49.539Z,44.58
2019-05-18T02:08:22.939Z,45.40
2019-05-18T02:08:55.574Z,46.70
2019-05-18T02:09:28.217Z,45.43
2019-05-18T02:10:00.965Z,45.08
2019-05-18T02:10:33.908Z,46.15
2019-05-18T02:11:07.866Z,43.78
2019-05-18T02:11:40.852Z,45.00
2019-05-18T02:12:13.887Z,42.70
2019-05-18T02:12:46.515Z,44.55
2019-05-18T02:13:19.532Z,47.98
2019-05-18T02:13:52.178Z,45.55
2019-05-18T02:14:24.822Z,41.02
2019-05-18T02:14:57.469Z,42.70
2019-05-18T02:15:30.139Z,41.33
2019-05-18T02:16:02.782Z,39.63
2019-05-18T02:16:35.425Z,34.67
2019-05-18T02:17:08.114Z,41.18
2019-05-18T02:17:40.781Z,40.58
2019-05-18T02:18:26.905Z,38.92
2019-05-18T02:18:48.282Z,40.03
2019-05-18T02:19:20.986Z,39.42
2019-05-18T02:19:53.622Z,43.10
2019-05-18T02:20:26.575Z,39.85
2019-05-18T02:20:59.207Z,35.63
2019-05-18T02:21:32.250Z,41.40
2019-05-18T02:22:05.042Z,43.78
2019-05-18T02:22:38.391Z,45.90
2019-05-18T02:23:11.036Z,42.13
2019-05-18T02:23:43.686Z,42.80
2019-05-18T02:24:16.667Z,38.95
2019-05-18T02:24:49.302Z,42.53
2019-05-18T02:25:22.329Z,45.73
2019-05-18T02:25:54.976Z,44.53
2019-05-18T02:26:27.615Z,41.80
2019-05-18T02:27:00.268Z,44.40
2019-05-18T02:27:32.904Z,40.55
2019-05-18T02:28:06.781Z,41.92
2019-05-18T02:28:39.732Z,40.38
2019-05-18T02:29:12.374Z,36.45
2019-05-18T02:29:45.019Z,36.45
2019-05-18T02:30:18.081Z,35.20
2019-05-18T02:30:50.725Z,37.63
2019-05-18T02:31:24.110Z,39.40
2019-05-18T02:31:56.751Z,36.17
2019-05-18T02:32:29.406Z,41.33
2019-05-18T02:33:02.047Z,43.70
2019-05-18T02:33:34.722Z,40.55
2019-05-18T02:34:07.371Z,41.05
2019-05-18T02:34:40.005Z,35.65
2019-05-18T02:35:12.797Z,39.48
2019-05-18T02:35:45.442Z,42.03
2019-05-18T02:36:18.110Z,40.85
2019-05-18T02:36:51.095Z,39.08
2019-05-18T02:37:23.729Z,35.25
2019-05-18T02:38:13.551Z,34.70
2019-05-18T02:38:46.253Z,41.75
2019-05-18T02:39:18.978Z,36.13
2019-05-18T02:39:54.283Z,35.63
2019-05-18T02:40:27.256Z,35.73
2019-05-18T02:40:59.901Z,43.78
2019-05-18T02:41:32.886Z,39.00
2019-05-18T02:42:05.544Z,39.53
2019-05-18T02:42:38.540Z,35.13
2019-05-18T02:43:11.182Z,36.88
2019-05-18T02:43:44.168Z,37.78
2019-05-18T02:44:17.249Z,39.92
2019-05-18T02:44:49.882Z,41.42
2019-05-18T02:45:22.539Z,40.55
2019-05-18T02:45:55.186Z,39.35
2019-05-18T02:46:27.838Z,39.95
2019-05-18T02:47:01.182Z,39.95
2019-05-18T02:47:33.832Z,39.40
2019-05-18T02:48:06.592Z,32.60
2019-05-18T02:48:49.754Z,57.13
2019-05-18T02:49:13.647Z,34.48
2019-05-18T02:49:46.314Z,56.92
2019-05-18T02:50:19.647Z,39.58
2019-05-18T02:50:52.279Z,32.55
2019-05-18T02:51:24.920Z,36.58
2019-05-18T02:51:57.581Z,53.02
2019-05-18T02:52:30.211Z,31.57
2019-05-18T02:53:02.981Z,58.08
2019-05-18T02:53:36.029Z,51.42
2019-05-18T02:54:08.640Z,47.80
2019-05-18T02:54:41.275Z,35.10
2019-05-18T02:55:13.934Z,23.32
2019-05-18T02:55:46.594Z,22.55
2019-05-18T02:56:19.684Z,22.40
2019-05-18T02:56:52.647Z,41.28
2019-05-18T02:57:25.630Z,71.75
2019-05-18T02:57:58.600Z,31.75
2019-05-18T02:58:31.250Z,25.43
2019-05-18T02:59:04.544Z,26.15
2019-05-18T02:59:37.170Z,28.05
2019-05-18T03:00:10.223Z,27.62
2019-05-18T03:00:42.909Z,25.75
2019-05-18T03:01:15.855Z,67.62
2019-05-18T03:01:48.847Z,55.63
2019-05-18T03:02:21.479Z,20.85
2019-05-18T03:02:54.128Z,38.30
2019-05-18T03:03:26.768Z,39.33
2019-05-18T03:04:00.075Z,27.32
2019-05-18T03:04:32.700Z,22.67
2019-05-18T03:05:05.531Z,20.75
2019-05-18T03:05:38.171Z,24.92
2019-05-18T03:06:10.838Z,25.27
2019-05-18T03:06:43.742Z,48.70
2019-05-18T03:07:16.376Z,37.60
2019-05-18T03:07:49.424Z,33.33
2019-05-18T03:08:22.057Z,18.17
2019-05-18T03:08:54.702Z,18.75
2019-05-18T03:09:27.337Z,20.95
2019-05-18T03:09:59.983Z,23.47
2019-05-18T03:10:32.621Z,20.60
2019-05-18T03:11:05.257Z,21.12
2019-05-18T03:11:37.938Z,18.12
2019-05-18T03:12:10.964Z,19.40
2019-05-18T03:12:43.597Z,22.48
2019-05-18T03:13:16.608Z,22.80
2019-05-18T03:13:49.376Z,17.75
2019-05-18T03:14:22.040Z,20.37
2019-05-18T03:14:54.697Z,18.35
2019-05-18T03:15:27.434Z,20.25
2019-05-18T03:16:00.071Z,16.85
2019-05-18T03:16:33.512Z,26.00
2019-05-18T03:17:06.682Z,34.48
2019-05-18T03:17:39.319Z,77.37
2019-05-18T03:18:12.167Z,23.50
2019-05-18T03:18:44.783Z,35.48
2019-05-18T03:19:17.800Z,20.92
2019-05-18T03:19:50.452Z,20.12
2019-05-18T03:20:23.429Z,20.62
2019-05-18T03:20:56.068Z,20.30
2019-05-18T03:21:29.217Z,23.77
2019-05-18T03:22:01.868Z,23.47
2019-05-18T03:22:34.659Z,28.23
2019-05-18T03:23:07.284Z,24.92
2019-05-18T03:23:40.314Z,22.60
2019-05-18T03:24:12.964Z,18.20
2019-05-18T03:24:45.945Z,22.73
2019-05-18T03:25:18.611Z,27.73
2019-05-18T03:25:51.252Z,21.50
2019-05-18T03:26:24.227Z,24.63
2019-05-18T03:26:56.861Z,22.02
2019-05-18T03:27:29.491Z,24.23
2019-05-18T03:28:02.183Z,25.27
2019-05-18T03:28:35.458Z,28.83
2019-05-18T03:29:08.143Z,23.22
2019-05-18T03:29:40.758Z,30.80
2019-05-18T03:30:14.164Z,27.35
2019-05-18T03:30:47.151Z,34.75
2019-05-18T03:31:19.799Z,33.65
2019-05-18T03:31:52.452Z,29.50
2019-05-18T03:32:25.096Z,29.35
2019-05-18T03:32:57.732Z,24.32
2019-05-18T03:33:30.856Z,30.82
2019-05-18T03:34:03.687Z,33.08
2019-05-18T03:34:36.300Z,29.75
2019-05-18T03:35:09.053Z,26.85
2019-05-18T03:35:41.693Z,28.05
2019-05-18T03:36:14.344Z,35.83
2019-05-18T03:36:47.695Z,28.42
2019-05-18T03:37:20.646Z,28.62
2019-05-18T03:37:53.664Z,34.40
2019-05-18T03:38:26.961Z,33.67
2019-05-18T03:38:59.635Z,32.55
2019-05-18T03:39:32.938Z,27.17
2019-05-18T03:40:06.577Z,36.90
2019-05-18T03:40:39.216Z,25.10
2019-05-18T03:41:12.151Z,29.55
2019-05-18T03:41:45.124Z,26.80
2019-05-18T03:42:18.099Z,25.62
2019-05-18T03:42:50.725Z,29.67
2019-05-18T03:43:23.749Z,33.02
2019-05-18T03:43:56.505Z,29.57
2019-05-18T03:44:29.164Z,30.92
2019-05-18T03:45:01.858Z,26.45
2019-05-18T03:45:34.799Z,28.73
2019-05-18T03:46:08.448Z,26.27
2019-05-18T03:46:41.830Z,31.30
2019-05-18T03:47:14.817Z,27.37
2019-05-18T03:47:47.463Z,29.07
2019-05-18T03:48:20.448Z,26.55
2019-05-18T03:48:53.083Z,25.32
2019-05-18T03:49:27.639Z,26.37
2019-05-18T03:50:00.210Z,30.48
2019-05-18T03:50:32.867Z,31.85
2019-05-18T03:51:06.123Z,30.43
2019-05-18T03:51:38.757Z,28.80
2019-05-18T03:52:11.396Z,26.52
2019-05-18T03:52:44.023Z,29.15
2019-05-18T03:53:18.289Z,25.35
2019-05-18T03:53:52.015Z,26.23
2019-05-18T03:54:24.668Z,24.85
2019-05-18T03:54:57.659Z,25.72
2019-05-18T03:55:30.555Z,21.05
2019-05-18T03:56:03.197Z,19.35
2019-05-18T03:56:35.834Z,21.80
2019-05-18T03:57:08.864Z,23.83
2019-05-18T03:57:42.334Z,19.15
2019-05-18T03:58:15.252Z,20.00
2019-05-18T03:58:48.261Z,18.10
2019-05-18T03:59:20.908Z,18.20
2019-05-18T03:59:53.549Z,18.80
2019-05-18T04:00:26.226Z,20.05
2019-05-18T04:00:59.609Z,18.23
2019-05-18T04:01:32.246Z,18.23
2019-05-18T04:02:04.886Z,18.92
2019-05-18T04:02:37.593Z,24.27
2019-05-18T04:03:10.191Z,17.02
2019-05-18T04:03:43.143Z,19.73
2019-05-18T04:04:18.439Z,21.62
2019-05-18T04:04:50.575Z,18.95
2019-05-18T04:05:23.576Z,18.50
2019-05-18T04:05:56.507Z,22.50
2019-05-18T04:06:29.191Z,19.57
2019-05-18T04:07:01.832Z,21.23
2019-05-18T04:07:34.472Z,19.82
2019-05-18T04:08:07.769Z,20.43
2019-05-18T04:08:40.721Z,25.50
2019-05-18T04:09:13.831Z,18.65
2019-05-18T04:09:46.855Z,22.32
2019-05-18T04:10:26.462Z,22.58
2019-05-18T04:10:59.090Z,21.23
2019-05-18T04:11:32.168Z,21.95
2019-05-18T04:12:05.222Z,21.30
2019-05-18T04:12:37.871Z,22.82
2019-05-18T04:13:10.519Z,23.38
2019-05-18T04:13:43.555Z,21.20
2019-05-18T04:14:16.205Z,20.00
2019-05-18T04:14:48.848Z,24.60
2019-05-18T04:15:21.490Z,22.27
2019-05-18T04:15:54.141Z,21.30
2019-05-18T04:16:26.765Z,24.50
2019-05-18T04:16:59.741Z,23.55
2019-05-18T04:17:32.389Z,20.30
2019-05-18T04:18:05.287Z,22.22
2019-05-18T04:18:37.952Z,18.30
2019-05-18T04:19:11.441Z,21.62
2019-05-18T04:19:46.762Z,20.40
2019-05-18T04:20:18.691Z,18.82
2019-05-18T04:20:51.362Z,18.90
2019-05-18T04:21:26.818Z,19.42
2019-05-18T04:21:59.457Z,23.57
2019-05-18T04:22:32.761Z,47.15
2019-05-18T04:23:05.482Z,21.00
2019-05-18T04:23:38.122Z,21.40
2019-05-18T04:24:10.791Z,22.60
2019-05-18T04:24:43.432Z,22.50
2019-05-18T04:25:16.479Z,23.92
2019-05-18T04:25:49.123Z,22.80
2019-05-18T04:26:21.774Z,26.42
2019-05-18T04:26:54.424Z,26.27
2019-05-18T04:27:27.081Z,23.92
2019-05-18T04:27:59.799Z,22.02
2019-05-18T04:28:32.489Z,23.65
2019-05-18T04:29:05.170Z,21.73
2019-05-18T04:29:37.818Z,27.45
2019-05-18T04:30:11.161Z,27.42
2019-05-18T04:30:44.120Z,22.45
2019-05-18T04:31:17.142Z,24.72
2019-05-18T04:31:49.784Z,25.85
2019-05-18T04:32:22.428Z,32.42
2019-05-18T04:32:55.443Z,38.00
2019-05-18T04:33:28.517Z,26.02
2019-05-18T04:34:01.240Z,25.27
2019-05-18T04:34:33.879Z,27.13
2019-05-18T04:35:06.923Z,28.27
2019-05-18T04:35:39.848Z,26.33
2019-05-18T04:36:12.937Z,24.70
2019-05-18T04:36:45.582Z,25.77
2019-05-18T04:37:18.623Z,37.50
2019-05-18T04:37:51.567Z,25.92
2019-05-18T04:38:24.220Z,31.07
2019-05-18T04:38:56.908Z,39.13
2019-05-18T04:39:29.830Z,32.53
2019-05-18T04:40:02.505Z,25.30
2019-05-18T04:40:35.451Z,31.05
2019-05-18T04:41:08.415Z,23.22
2019-05-18T04:41:41.054Z,28.27
2019-05-18T04:42:14.011Z,24.85
2019-05-18T04:42:46.713Z,33.15
2019-05-18T04:43:19.346Z,37.17
2019-05-18T04:43:52.274Z,24.23
2019-05-18T04:44:24.956Z,38.60
2019-05-18T04:44:57.581Z,31.27
2019-05-18T04:45:30.388Z,30.32
2019-05-18T04:46:03.033Z,25.35
2019-05-18T04:46:36.055Z,39.95
2019-05-18T04:47:08.709Z,26.20
2019-05-18T04:47:41.676Z,24.50
2019-05-18T04:48:14.323Z,24.15
2019-05-18T04:48:47.291Z,28.40
2019-05-18T04:49:20.217Z,35.17
2019-05-18T04:50:04.513Z,30.90
2019-05-18T04:50:27.663Z,54.35
2019-05-18T04:51:00.311Z,36.38
2019-05-18T04:51:33.013Z,38.48
2019-05-18T04:52:06.067Z,26.05
2019-05-18T04:52:38.733Z,39.95
2019-05-18T04:53:11.383Z,27.62
2019-05-18T04:53:44.007Z,24.85
2019-05-18T04:54:16.668Z,28.05
2019-05-18T04:54:49.663Z,28.85
2019-05-18T04:55:22.342Z,29.98
2019-05-18T04:55:55.000Z,35.30
2019-05-18T04:56:27.640Z,28.60
2019-05-18T04:57:00.263Z,29.15
2019-05-18T04:57:32.899Z,31.37
2019-05-18T04:58:05.548Z,26.17
2019-05-18T04:58:38.526Z,30.80
2019-05-18T04:59:11.978Z,36.77
2019-05-18T04:59:44.618Z,31.50
2019-05-18T05:00:17.413Z,41.68
2019-05-18T05:00:50.242Z,28.25
2019-05-18T05:01:23.283Z,27.48
2019-05-18T05:01:55.942Z,29.35
2019-05-18T05:02:29.008Z,44.33
2019-05-18T05:03:01.657Z,41.28
2019-05-18T05:03:34.282Z,27.93
2019-05-18T05:04:06.956Z,32.53
2019-05-18T05:04:39.899Z,43.42
2019-05-18T05:05:12.878Z,29.20
2019-05-18T05:05:45.539Z,33.33
2019-05-18T05:06:18.224Z,39.15
2019-05-18T05:06:50.847Z,32.20
2019-05-18T05:07:23.507Z,28.70
2019-05-18T05:07:56.741Z,33.90
2019-05-18T05:08:29.674Z,32.80
2019-05-18T05:09:02.803Z,30.48
2019-05-18T05:09:35.441Z,31.55
2019-05-18T05:10:08.264Z,34.50
2019-05-18T05:10:41.199Z,39.08
2019-05-18T05:11:14.127Z,35.20
2019-05-18T05:11:46.822Z,29.82
2019-05-18T05:12:19.473Z,32.70
2019-05-18T05:12:52.111Z,31.42
2019-05-18T05:13:24.733Z,34.20
2019-05-18T05:13:57.407Z,31.12
2019-05-18T05:14:30.354Z,32.70
2019-05-18T05:15:03.355Z,36.95
2019-05-18T05:15:35.992Z,40.23
2019-05-18T05:16:08.637Z,36.05
2019-05-18T05:16:41.287Z,38.40
2019-05-18T05:17:14.254Z,39.98
2019-05-18T05:17:46.918Z,37.88
2019-05-18T05:18:19.974Z,42.25
2019-05-18T05:18:52.700Z,35.98
2019-05-18T05:19:25.696Z,36.45
2019-05-18T05:19:58.983Z,41.48
2019-05-18T05:20:31.623Z,43.95
2019-05-18T05:21:04.598Z,41.18
2019-05-18T05:21:37.876Z,36.10
2019-05-18T05:22:10.546Z,38.10
2019-05-18T05:22:43.226Z,37.28
2019-05-18T05:23:15.870Z,47.65
2019-05-18T05:23:48.543Z,39.48
2019-05-18T05:24:21.531Z,36.63
2019-05-18T05:24:54.497Z,46.90
2019-05-18T05:25:28.556Z,40.40
2019-05-18T05:26:04.419Z,40.83
2019-05-18T05:26:39.599Z,39.25
2019-05-18T05:27:13.495Z,46.02
2019-05-18T05:27:46.264Z,38.65
2019-05-18T05:28:19.401Z,40.38
2019-05-18T05:28:52.055Z,40.48
2019-05-18T05:29:25.033Z,38.55
2019-05-18T05:29:58.022Z,37.35
2019-05-18T05:30:30.681Z,41.30
2019-05-18T05:31:03.632Z,39.55
2019-05-18T05:31:36.284Z,42.48
2019-05-18T05:32:08.923Z,40.67
2019-05-18T05:32:41.935Z,45.83
2019-05-18T05:33:14.993Z,42.88
2019-05-18T05:33:47.676Z,43.05
2019-05-18T05:34:20.400Z,44.73
2019-05-18T05:34:53.420Z,41.90
2019-05-18T05:35:26.391Z,41.40
2019-05-18T05:35:59.036Z,40.83
2019-05-18T05:36:31.878Z,40.43
2019-05-18T05:37:04.535Z,38.88
2019-05-18T05:37:37.536Z,41.60
2019-05-18T05:38:10.500Z,39.67
2019-05-18T05:38:43.171Z,44.80
2019-05-18T05:39:16.200Z,41.05
2019-05-18T05:39:48.944Z,42.80
2019-05-18T05:40:21.599Z,41.70
2019-05-18T05:40:54.273Z,41.10
2019-05-18T05:41:26.951Z,40.80
2019-05-18T05:41:59.607Z,38.02
2019-05-18T05:42:32.267Z,41.55
2019-05-18T05:43:04.927Z,44.38
2019-05-18T05:43:37.587Z,42.45
2019-05-18T05:44:10.242Z,47.95
2019-05-18T05:44:42.951Z,43.02
2019-05-18T05:45:15.690Z,47.33
2019-05-18T05:45:48.680Z,44.60
2019-05-18T05:46:21.331Z,39.30
2019-05-18T05:46:55.115Z,48.80
2019-05-18T05:47:27.810Z,55.60
2019-05-18T05:48:01.092Z,48.33
2019-05-18T05:48:33.734Z,45.67
2019-05-18T05:49:06.739Z,46.20
2019-05-18T05:49:39.670Z,44.67
2019-05-18T05:50:12.464Z,47.73
2019-05-18T05:50:45.442Z,42.98
2019-05-18T05:51:18.459Z,47.55
2019-05-18T05:51:51.584Z,48.30
2019-05-18T05:52:24.201Z,47.10
2019-05-18T05:52:56.853Z,53.23
2019-05-18T05:53:29.796Z,46.60
2019-05-18T05:54:02.758Z,41.65
2019-05-18T05:54:35.408Z,53.02
2019-05-18T05:55:09.554Z,43.60
2019-05-18T05:55:42.708Z,47.08
2019-05-18T05:56:15.359Z,56.45
2019-05-18T05:56:47.983Z,49.48
2019-05-18T05:57:20.611Z,50.20
2019-05-18T05:57:53.581Z,50.15
2019-05-18T05:58:26.332Z,49.20
2019-05-18T05:58:58.979Z,45.85
2019-05-18T05:59:31.951Z,44.75
2019-05-18T06:00:06.240Z,48.58
2019-05-18T06:00:38.871Z,47.48
2019-05-18T06:01:11.612Z,49.58
2019-05-18T06:01:44.631Z,48.92
2019-05-18T06:02:17.269Z,44.00
2019-05-18T06:02:49.917Z,47.70
2019-05-18T06:03:22.563Z,66.33
2019-05-18T06:03:55.198Z,49.35
2019-05-18T06:04:27.861Z,45.12
2019-05-18T06:05:00.487Z,46.88
2019-05-18T06:05:33.102Z,53.45
2019-05-18T06:06:05.748Z,48.38
2019-05-18T06:06:38.783Z,52.40
2019-05-18T06:07:11.436Z,46.70
2019-05-18T06:07:44.425Z,48.02
2019-05-18T06:08:17.064Z,54.85
2019-05-18T06:08:49.702Z,58.13
2019-05-18T06:09:22.725Z,48.73
2019-05-18T06:09:55.367Z,51.55
2019-05-18T06:10:28.367Z,51.18
2019-05-18T06:11:01.009Z,50.63
2019-05-18T06:11:33.659Z,43.78
2019-05-18T06:12:06.327Z,45.55
2019-05-18T06:12:38.962Z,48.17
2019-05-18T06:13:11.622Z,49.73
2019-05-18T06:13:44.261Z,51.63
2019-05-18T06:14:16.993Z,46.02
2019-05-18T06:14:49.640Z,49.75
2019-05-18T06:15:22.671Z,45.67
2019-05-18T06:15:55.652Z,45.80
2019-05-18T06:16:28.621Z,47.20
2019-05-18T06:17:01.277Z,44.70
2019-05-18T06:17:33.971Z,46.55
2019-05-18T06:18:06.606Z,47.45
2019-05-18T06:18:39.691Z,57.45
2019-05-18T06:19:12.667Z,49.77
2019-05-18T06:19:45.795Z,48.33
2019-05-18T06:20:18.799Z,45.90
2019-05-18T06:20:52.185Z,46.83
2019-05-18T06:21:25.304Z,49.10
2019-05-18T06:21:58.661Z,45.03
2019-05-18T06:22:31.884Z,45.58
2019-05-18T06:23:04.955Z,49.65
2019-05-18T06:23:37.610Z,45.73
2019-05-18T06:24:10.278Z,47.53
2019-05-18T06:24:43.422Z,53.05
2019-05-18T06:25:16.123Z,49.20
2019-05-18T06:25:49.129Z,45.55
2019-05-18T06:26:24.200Z,45.70
2019-05-18T06:26:56.535Z,49.63
2019-05-18T06:27:29.188Z,49.80
2019-05-18T06:28:01.889Z,49.33
2019-05-18T06:28:34.942Z,53.92
2019-05-18T06:29:07.615Z,46.05
2019-05-18T06:29:40.288Z,48.25
2019-05-18T06:30:13.489Z,47.45
2019-05-18T06:30:46.127Z,51.18
2019-05-18T06:31:19.157Z,46.83
2019-05-18T06:31:52.177Z,44.73
2019-05-18T06:32:24.823Z,49.80
2019-05-18T06:32:58.525Z,50.33
2019-05-18T06:33:31.523Z,50.65
2019-05-18T06:34:04.547Z,49.53
2019-05-18T06:34:37.491Z,44.18
2019-05-18T06:35:11.239Z,46.70
2019-05-18T06:35:44.211Z,51.15
2019-05-18T06:36:16.848Z,46.18
2019-05-18T06:36:49.856Z,46.42
2019-05-18T06:37:22.486Z,46.68
2019-05-18T06:37:55.527Z,44.18
2019-05-18T06:38:28.511Z,52.95
2019-05-18T06:39:01.149Z,46.13
2019-05-18T06:39:33.814Z,41.85
2019-05-18T06:40:07.094Z,46.13
2019-05-18T06:40:39.731Z,51.63
2019-05-18T06:41:12.742Z,51.90
2019-05-18T06:41:45.686Z,45.88
2019-05-18T06:42:18.803Z,49.45
2019-05-18T06:42:51.489Z,50.58
2019-05-18T06:43:24.102Z,47.83
2019-05-18T06:43:58.495Z,46.90
2019-05-18T06:44:31.173Z,50.43
2019-05-18T06:45:05.066Z,49.90
2019-05-18T06:45:37.699Z,46.08
2019-05-18T06:46:10.598Z,45.63
2019-05-18T06:46:43.241Z,43.73
2019-05-18T06:47:15.870Z,47.58
2019-05-18T06:47:48.890Z,47.15
2019-05-18T06:48:21.827Z,47.88
2019-05-18T06:48:54.448Z,47.00
2019-05-18T06:49:27.097Z,55.98
2019-05-18T06:50:00.120Z,48.40
2019-05-18T06:50:32.776Z,46.40
2019-05-18T06:51:07.513Z,49.08
2019-05-18T06:51:40.219Z,46.65
2019-05-18T06:52:12.949Z,46.48
2019-05-18T06:52:45.977Z,47.35
2019-05-18T06:53:19.848Z,49.15
2019-05-18T06:53:53.459Z,49.95
2019-05-18T06:54:26.409Z,48.35
2019-05-18T06:54:59.059Z,50.67
2019-05-18T06:55:32.377Z,48.65
2019-05-18T06:56:05.746Z,53.30
2019-05-18T06:56:38.831Z,49.23
2019-05-18T06:57:12.617Z,45.78
2019-05-18T06:57:46.106Z,46.88
2019-05-18T06:58:20.078Z,47.17
2019-05-18T06:58:53.758Z,45.20
2019-05-18T06:59:27.183Z,48.68
2019-05-18T07:00:00.716Z,40.30
2019-05-18T07:00:33.351Z,49.33
2019-05-18T07:01:06.037Z,50.25
2019-05-18T07:01:39.006Z,49.42
2019-05-18T07:02:11.948Z,49.20
2019-05-18T07:02:44.883Z,49.33
2019-05-18T07:03:17.591Z,51.15
2019-05-18T07:03:50.489Z,47.45
2019-05-18T07:04:23.475Z,46.63